Time;durP1;ratioP1;P1;durP2;ratioP2;P2;SDS_P1;SDS_P2;PMS_P1;PMS_P2;Temp;Humidity;BMP_temperature;BMP_pressure;BME280_temperature;BME280_humidity;BME280_pressure;Samples;Min_cycle;Max_cycle;Signal;HPM_P1;HPM_P2
2021/03/14 00:00:44;;;;;;;9.35;1.73;;;;;;;;;;5071920;28;20044;-65
2021/03/14 00:03:29;;;;;;;17.02;4.07;;;;;;;;;;5071924;28;20494;-64
2021/03/14 00:06:14;;;;;;;10.85;2.45;;;;;;;;;;5070759;28;20124;-65
2021/03/14 00:08:59;;;;;;;13.57;2.30;;;;;;;;;;5071445;28;20545;-64
2021/03/14 00:11:45;;;;;;;11.43;2.58;;;;;;;;;;5071794;28;20068;-64
2021/03/14 00:14:30;;;;;;;12.52;2.22;;;;;;;;;;5069342;28;20449;-65
2021/03/14 00:17:16;;;;;;;11.07;1.98;;;;;;;;;;5071539;28;20051;-64
2021/03/14 00:20:01;;;;;;;13.07;2.30;;;;;;;;;;5071729;28;20048;-65
2021/03/14 00:22:47;;;;;;;11.25;2.45;;;;;;;;;;5071624;28;20053;-64
2021/03/14 00:25:32;;;;;;;13.27;1.98;;;;;;;;;;5056289;28;20491;-65
2021/03/14 00:28:18;;;;;;;13.93;2.28;;;;;;;;;;5064544;28;20048;-65
2021/03/14 00:31:03;;;;;;;12.23;2.03;;;;;;;;;;5051552;28;20052;-64
2021/03/14 00:33:49;;;;;;;10.27;2.75;;;;;;;;;;5051592;28;20090;-65
2021/03/14 00:36:34;;;;;;;11.93;2.53;;;;;;;;;;5069090;28;20097;-65
2021/03/14 00:39:19;;;;;;;12.43;1.85;;;;;;;;;;5071419;28;20486;-65
2021/03/14 00:42:05;;;;;;;8.73;2.00;;;;;;;;;;5074898;28;20178;-65
2021/03/14 00:44:50;;;;;;;10.20;1.58;;;;;;;;;;5055322;28;20071;-66
2021/03/14 00:47:36;;;;;;;9.13;1.95;;;;;;;;;;5055101;28;20040;-64
2021/03/14 00:50:21;;;;;;;9.77;1.88;;;;;;;;;;5055386;28;20049;-64
2021/03/14 00:53:07;;;;;;;16.50;2.00;;;;;;;;;;5057292;28;20055;-65
2021/03/14 00:55:56;;;;;;;12.55;1.88;;;;;;;;;;5073719;28;20052;-65
2021/03/14 00:58:41;;;;;;;11.52;1.83;;;;;;;;;;5075034;28;20066;-65
2021/03/14 01:01:29;;;;;;;18.50;2.42;;;;;;;;;;5075005;28;20114;-65
2021/03/14 01:04:14;;;;;;;14.82;2.03;;;;;;;;;;5065970;28;20083;-66
2021/03/14 01:06:59;;;;;;;18.48;3.15;;;;;;;;;;5054935;28;20179;-66
2021/03/14 01:09:47;;;;;;;13.70;2.55;;;;;;;;;;5053901;28;20079;-66
2021/03/14 01:12:33;;;;;;;15.63;2.78;;;;;;;;;;5053665;28;20056;-67
2021/03/14 01:15:25;;;;;;;16.50;4.35;;;;;;;;;;5069067;28;20053;-66
2021/03/14 01:18:15;;;;;;;11.65;2.50;;;;;;;;;;5073541;28;20468;-66
2021/03/14 01:21:00;;;;;;;16.80;3.08;;;;;;;;;;5074612;28;20059;-67
2021/03/14 01:23:45;;;;;;;11.55;2.60;;;;;;;;;;5072831;28;20045;-66
2021/03/14 01:26:31;;;;;;;10.95;2.30;;;;;;;;;;5074273;28;20040;-66
2021/03/14 01:29:16;;;;;;;15.05;2.22;;;;;;;;;;5074225;28;20045;-67
2021/03/14 01:32:02;;;;;;;15.00;2.85;;;;;;;;;;5074486;28;20045;-66
2021/03/14 01:34:49;;;;;;;17.95;3.08;;;;;;;;;;5055054;28;20049;-65
2021/03/14 01:37:34;;;;;;;15.32;2.95;;;;;;;;;;5087258;28;20411;-67
2021/03/14 01:40:19;;;;;;;19.17;3.65;;;;;;;;;;5074239;28;20624;-67
2021/03/14 01:43:05;;;;;;;15.57;3.22;;;;;;;;;;5072148;28;20050;-67
2021/03/14 01:45:50;;;;;;;17.30;2.75;;;;;;;;;;5053761;28;20123;-66
2021/03/14 01:48:36;;;;;;;22.20;3.55;;;;;;;;;;5054123;28;20048;-66
2021/03/14 01:51:21;;;;;;;17.08;2.47;;;;;;;;;;5066732;28;20057;-66
2021/03/14 01:54:06;;;;;;;16.30;2.60;;;;;;;;;;5073854;28;20036;-66
2021/03/14 01:56:51;;;;;;;19.77;3.38;;;;;;;;;;5077102;28;20048;-67
2021/03/14 01:59:37;;;;;;;17.95;3.00;;;;;;;;;;5105185;28;20395;-66
2021/03/14 02:02:22;;;;;;;16.17;2.70;;;;;;;;;;5092936;28;20044;-66
2021/03/14 02:05:08;;;;;;;17.00;4.22;;;;;;;;;;5067201;28;20427;-66
2021/03/14 02:07:54;;;;;;;17.38;3.55;;;;;;;;;;5054063;28;20049;-65
2021/03/14 02:10:39;;;;;;;20.48;3.85;;;;;;;;;;5066524;28;20072;-65
2021/03/14 02:13:26;;;;;;;16.13;3.45;;;;;;;;;;5066605;28;20049;-65
2021/03/14 02:16:14;;;;;;;12.57;3.25;;;;;;;;;;5083329;28;20041;-64
2021/03/14 02:19:00;;;;;;;16.23;3.60;;;;;;;;;;5073310;28;20045;-65
2021/03/14 02:21:45;;;;;;;15.23;3.28;;;;;;;;;;5073298;28;20499;-65
2021/03/14 02:24:40;;;;;;;17.52;3.63;;;;;;;;;;5071262;28;20430;-65
2021/03/14 02:27:25;;;;;;;19.45;3.08;;;;;;;;;;5072930;28;20503;-64
2021/03/14 02:30:12;;;;;;;15.85;3.28;;;;;;;;;;5084651;28;20040;-65
2021/03/14 02:32:57;;;;;;;14.57;3.58;;;;;;;;;;5073202;28;20056;-65
2021/03/14 02:35:42;;;;;;;16.83;3.90;;;;;;;;;;5076687;28;20049;-65
2021/03/14 02:38:28;;;;;;;19.13;3.47;;;;;;;;;;5066139;28;20041;-65
2021/03/14 02:41:13;;;;;;;18.10;4.10;;;;;;;;;;5052965;28;20051;-65
2021/03/14 02:43:58;;;;;;;20.70;3.80;;;;;;;;;;5065993;28;20103;-65
2021/03/14 02:46:43;;;;;;;14.35;2.75;;;;;;;;;;5080046;28;20051;-65
2021/03/14 02:49:29;;;;;;;14.30;3.33;;;;;;;;;;5085952;28;20086;-64
2021/03/14 02:52:14;;;;;;;28.02;4.40;;;;;;;;;;5086137;28;20044;-64
2021/03/14 02:54:59;;;;;;;17.85;2.58;;;;;;;;;;5085697;28;20045;-64
2021/03/14 02:57:44;;;;;;;17.00;2.92;;;;;;;;;;5052827;28;20418;-64
2021/03/14 03:00:31;;;;;;;16.52;3.28;;;;;;;;;;5052581;28;20073;-64
2021/03/14 03:03:16;;;;;;;21.10;4.38;;;;;;;;;;5079544;28;20052;-65
2021/03/14 03:06:01;;;;;;;22.92;3.88;;;;;;;;;;5052073;28;20052;-65
2021/03/14 03:08:46;;;;;;;23.60;4.70;;;;;;;;;;5064207;28;20037;-65
2021/03/14 03:11:32;;;;;;;17.95;3.88;;;;;;;;;;5065331;28;20521;-65
2021/03/14 03:14:17;;;;;;;16.08;3.17;;;;;;;;;;5052337;28;20041;-65
2021/03/14 03:17:03;;;;;;;25.13;5.32;;;;;;;;;;5060822;28;20644;-64
2021/03/14 03:19:48;;;;;;;19.45;2.80;;;;;;;;;;5072298;28;20448;-64
2021/03/14 03:22:34;;;;;;;22.00;4.03;;;;;;;;;;5085602;28;20044;-65
2021/03/14 03:25:19;;;;;;;15.10;3.53;;;;;;;;;;5085157;28;20137;-65
2021/03/14 03:28:05;;;;;;;14.75;3.20;;;;;;;;;;5057601;28;20106;-65
2021/03/14 03:30:50;;;;;;;14.38;3.63;;;;;;;;;;5052124;28;20396;-66
2021/03/14 03:33:36;;;;;;;21.08;4.15;;;;;;;;;;5052346;28;20080;-66
2021/03/14 03:36:21;;;;;;;19.58;4.15;;;;;;;;;;5051823;28;20529;-66
2021/03/14 03:39:07;;;;;;;17.70;3.75;;;;;;;;;;5071816;28;20052;-65
2021/03/14 03:41:55;;;;;;;15.55;3.20;;;;;;;;;;5085139;28;20506;-65
2021/03/14 03:44:40;;;;;;;17.88;3.72;;;;;;;;;;5071748;28;20413;-65
2021/03/14 03:47:26;;;;;;;21.27;3.60;;;;;;;;;;5084348;28;20406;-66
2021/03/14 03:50:13;;;;;;;22.58;4.43;;;;;;;;;;5085275;28;20506;-66
2021/03/14 03:52:58;;;;;;;17.55;3.42;;;;;;;;;;5071954;28;20086;-64
2021/03/14 03:55:43;;;;;;;18.73;2.75;;;;;;;;;;5084956;28;20067;-65
2021/03/14 03:58:30;;;;;;;16.38;3.80;;;;;;;;;;5076056;28;20059;-65
2021/03/14 04:01:15;;;;;;;17.13;3.03;;;;;;;;;;5064893;28;20045;-65
2021/03/14 04:04:01;;;;;;;17.95;3.55;;;;;;;;;;5065031;28;20045;-65
2021/03/14 04:06:46;;;;;;;14.65;2.95;;;;;;;;;;5064946;28;20056;-65
2021/03/14 04:09:32;;;;;;;19.27;3.03;;;;;;;;;;5065212;28;20049;-64
2021/03/14 04:12:17;;;;;;;16.88;3.83;;;;;;;;;;5084858;28;20051;-65
2021/03/14 04:15:02;;;;;;;12.27;3.92;;;;;;;;;;5071710;28;20056;-66
2021/03/14 04:17:48;;;;;;;17.70;3.42;;;;;;;;;;5075795;28;20063;-66
2021/03/14 04:20:34;;;;;;;15.82;3.08;;;;;;;;;;5055624;28;20045;-65
2021/03/14 04:23:20;;;;;;;14.43;3.38;;;;;;;;;;5055681;28;20049;-66
2021/03/14 04:26:05;;;;;;;10.10;2.95;;;;;;;;;;5082471;28;20049;-65
2021/03/14 04:28:51;;;;;;;15.18;2.75;;;;;;;;;;5085627;28;20112;-65
2021/03/14 04:31:46;;;;;;;17.35;3.28;;;;;;;;;;5072081;28;20048;-65
2021/03/14 04:34:32;;;;;;;15.55;3.63;;;;;;;;;;5088373;28;20040;-65
2021/03/14 04:37:17;;;;;;;12.73;3.60;;;;;;;;;;5075327;28;20478;-66
2021/03/14 04:40:03;;;;;;;12.85;3.83;;;;;;;;;;5074472;28;20051;-65
2021/03/14 04:42:49;;;;;;;11.57;2.50;;;;;;;;;;5073665;28;20052;-66
2021/03/14 04:45:34;;;;;;;15.43;3.33;;;;;;;;;;5074942;28;20048;-66
2021/03/14 04:48:23;;;;;;;10.05;2.60;;;;;;;;;;5088397;28;20056;-66
2021/03/14 04:51:08;;;;;;;14.85;3.63;;;;;;;;;;5074242;28;20044;-66
2021/03/14 04:53:53;;;;;;;13.85;3.25;;;;;;;;;;5074929;28;20040;-66
2021/03/14 04:56:39;;;;;;;12.70;3.17;;;;;;;;;;5088252;28;20410;-65
2021/03/14 04:59:24;;;;;;;17.38;3.95;;;;;;;;;;5088252;28;20503;-65
2021/03/14 05:02:09;;;;;;;16.20;3.00;;;;;;;;;;5074626;28;20115;-65
2021/03/14 05:04:54;;;;;;;20.25;3.80;;;;;;;;;;5087925;28;20135;-65
2021/03/14 05:07:39;;;;;;;19.60;3.75;;;;;;;;;;5087783;28;20044;-66
2021/03/14 05:10:25;;;;;;;18.50;3.00;;;;;;;;;;5086915;28;20045;-65
2021/03/14 05:13:10;;;;;;;22.35;3.90;;;;;;;;;;5088171;28;20044;-65
2021/03/14 05:15:56;;;;;;;18.98;4.10;;;;;;;;;;5074600;28;20501;-66
2021/03/14 05:18:42;;;;;;;18.52;3.83;;;;;;;;;;5087606;28;20051;-65
2021/03/14 05:21:28;;;;;;;15.05;3.13;;;;;;;;;;5086946;28;20483;-65
2021/03/14 05:24:13;;;;;;;15.30;3.40;;;;;;;;;;5074450;28;20041;-65
2021/03/14 05:26:58;;;;;;;13.65;3.50;;;;;;;;;;5073934;28;20048;-66
2021/03/14 05:29:45;;;;;;;15.73;4.65;;;;;;;;;;5074517;28;20045;-66
2021/03/14 05:32:31;;;;;;;15.07;3.80;;;;;;;;;;5073640;28;20049;-65
2021/03/14 05:35:16;;;;;;;10.82;2.65;;;;;;;;;;5073999;28;20101;-65
2021/03/14 05:38:02;;;;;;;11.57;3.28;;;;;;;;;;5074126;28;20506;-66
2021/03/14 05:40:47;;;;;;;14.40;3.47;;;;;;;;;;5074268;28;20048;-66
2021/03/14 05:43:32;;;;;;;17.63;3.50;;;;;;;;;;5086990;28;20044;-66
2021/03/14 05:46:18;;;;;;;11.77;2.65;;;;;;;;;;5086853;28;20046;-65
2021/03/14 05:49:06;;;;;;;14.18;3.25;;;;;;;;;;5074071;28;20563;-66
2021/03/14 05:51:52;;;;;;;11.95;2.83;;;;;;;;;;5072990;28;20044;-65
2021/03/14 05:54:38;;;;;;;10.85;3.72;;;;;;;;;;5073662;28;20068;-66
2021/03/14 05:57:23;;;;;;;11.70;2.58;;;;;;;;;;5086972;28;20139;-66
2021/03/14 06:00:08;;;;;;;7.82;1.88;;;;;;;;;;5072908;28;20048;-65
2021/03/14 06:02:57;;;;;;;11.90;2.80;;;;;;;;;;5074012;28;20040;-66
2021/03/14 06:05:43;;;;;;;14.10;2.83;;;;;;;;;;5073568;28;20044;-66
2021/03/14 06:08:28;;;;;;;10.75;2.95;;;;;;;;;;5073361;28;20055;-66
2021/03/14 06:11:13;;;;;;;7.18;2.50;;;;;;;;;;5072950;28;20045;-66
2021/03/14 06:14:00;;;;;;;11.60;2.75;;;;;;;;;;5073665;28;20124;-66
2021/03/14 06:16:45;;;;;;;12.15;2.40;;;;;;;;;;5073546;28;20603;-66
2021/03/14 06:19:31;;;;;;;17.33;3.03;;;;;;;;;;5073600;28;20036;-66
2021/03/14 06:22:23;;;;;;;13.65;3.08;;;;;;;;;;5072425;28;20423;-66
2021/03/14 06:25:09;;;;;;;8.50;2.42;;;;;;;;;;5073268;28;20040;-66
2021/03/14 06:27:55;;;;;;;12.93;2.80;;;;;;;;;;5073294;28;20102;-65
2021/03/14 06:30:40;;;;;;;8.48;2.38;;;;;;;;;;5073262;28;20179;-66
2021/03/14 06:33:27;;;;;;;7.53;2.10;;;;;;;;;;5072507;28;20574;-66
2021/03/14 06:36:15;;;;;;;9.77;2.88;;;;;;;;;;5072864;28;20521;-65
2021/03/14 06:39:00;;;;;;;7.63;2.38;;;;;;;;;;5072406;28;20406;-66
2021/03/14 06:41:46;;;;;;;8.60;1.95;;;;;;;;;;5072084;28;20044;-66
2021/03/14 06:44:32;;;;;;;7.40;1.90;;;;;;;;;;5072876;28;20102;-66
2021/03/14 06:47:17;;;;;;;10.60;2.88;;;;;;;;;;5072791;28;20110;-65
2021/03/14 06:50:02;;;;;;;9.45;1.42;;;;;;;;;;5086146;28;20044;-66
2021/03/14 06:53:06;;;;;;;12.30;2.55;;;;;;;;;;5072262;28;20048;-66
2021/03/14 06:55:52;;;;;;;4.70;1.98;;;;;;;;;;5072577;28;20063;-65
2021/03/14 06:58:38;;;;;;;9.98;1.80;;;;;;;;;;5072503;28;20063;-65
2021/03/14 07:01:23;;;;;;;13.25;2.70;;;;;;;;;;5072765;28;20080;-66
2021/03/14 07:04:08;;;;;;;9.77;1.98;;;;;;;;;;5071630;28;20127;-65
2021/03/14 07:06:54;;;;;;;11.40;2.45;;;;;;;;;;5072430;28;20063;-66
2021/03/14 07:09:39;;;;;;;13.70;2.10;;;;;;;;;;5072195;28;20057;-66
2021/03/14 07:12:28;;;;;;;10.70;2.25;;;;;;;;;;5072506;28;20045;-66
2021/03/14 07:15:16;;;;;;;10.73;2.03;;;;;;;;;;5072127;28;20044;-66
2021/03/14 07:18:01;;;;;;;7.93;2.17;;;;;;;;;;5072391;28;20048;-66
2021/03/14 07:20:47;;;;;;;12.93;2.67;;;;;;;;;;5072118;28;20066;-65
2021/03/14 07:23:33;;;;;;;10.43;1.98;;;;;;;;;;5084641;28;20487;-66
2021/03/14 07:26:38;;;;;;;11.65;2.42;;;;;;;;;;5072213;28;20052;-65
2021/03/14 07:29:24;;;;;;;7.45;2.00;;;;;;;;;;5072156;28;20517;-65
2021/03/14 07:32:10;;;;;;;10.38;2.08;;;;;;;;;;5069945;28;20036;-66
2021/03/14 07:34:55;;;;;;;8.98;2.10;;;;;;;;;;5071274;28;20049;-65
2021/03/14 07:37:44;;;;;;;9.20;1.85;;;;;;;;;;5071172;28;20044;-66
2021/03/14 07:40:30;;;;;;;11.52;2.05;;;;;;;;;;5072083;28;20106;-66
2021/03/14 07:43:15;;;;;;;8.90;2.15;;;;;;;;;;5072198;28;20044;-65
2021/03/14 07:46:00;;;;;;;10.30;1.95;;;;;;;;;;5084300;28;20044;-66
2021/03/14 07:48:45;;;;;;;8.75;2.65;;;;;;;;;;5084803;28;20044;-66
2021/03/14 07:51:31;;;;;;;9.88;2.40;;;;;;;;;;5085112;28;20041;-66
2021/03/14 07:54:20;;;;;;;14.27;2.65;;;;;;;;;;5070677;28;20052;-66
2021/03/14 07:57:06;;;;;;;13.93;2.72;;;;;;;;;;5084967;28;20044;-66
2021/03/14 07:59:51;;;;;;;10.40;2.35;;;;;;;;;;5084033;28;20049;-65
2021/03/14 08:02:36;;;;;;;10.45;3.30;;;;;;;;;;5051848;28;20037;-65
2021/03/14 08:05:42;;;;;;;10.73;3.28;;;;;;;;;;5058809;28;20457;-66
2021/03/14 08:08:28;;;;;;;15.25;3.63;;;;;;;;;;5061115;28;20052;-66
2021/03/14 08:11:23;;;;;;;12.55;3.42;;;;;;;;;;5090162;22;20510;-62
2021/03/14 08:14:08;;;;;;;11.30;2.42;;;;;;;;;;5050819;28;20049;-66
2021/03/14 08:17:13;;;;;;;13.85;3.15;;;;;;;;;;5049738;28;20037;-62
2021/03/14 08:19:59;;;;;;;14.45;3.00;;;;;;;;;;5050305;28;20124;-63
2021/03/14 08:22:48;;;;;;;12.55;3.45;;;;;;;;;;5031929;28;20041;-63
2021/03/14 08:25:38;;;;;;;20.30;3.65;;;;;;;;;;5030263;28;20049;-63
2021/03/14 08:28:25;;;;;;;16.25;3.85;;;;;;;;;;5030503;28;20438;-63
2021/03/14 08:31:14;;;;;;;13.38;3.05;;;;;;;;;;5041857;28;20049;-62
2021/03/14 08:34:03;;;;;;;13.13;3.28;;;;;;;;;;5051512;28;20045;-63
2021/03/14 08:36:54;;;;;;;16.13;4.45;;;;;;;;;;5050887;28;20041;-62
2021/03/14 08:39:48;;;;;;;16.25;3.10;;;;;;;;;;5050635;28;20128;-62
2021/03/14 08:42:50;;;;;;;13.35;3.97;;;;;;;;;;5042154;28;20045;-62
2021/03/14 08:45:43;;;;;;;12.48;3.95;;;;;;;;;;5046279;28;20045;-63
2021/03/14 08:48:48;;;;;;;7.82;2.50;;;;;;;;;;5052787;28;20041;-62
2021/03/14 08:51:33;;;;;;;10.05;2.97;;;;;;;;;;5045102;28;20048;-63
2021/03/14 08:54:24;;;;;;;10.55;2.42;;;;;;;;;;5038176;28;20045;-63
2021/03/14 08:57:10;;;;;;;9.25;2.92;;;;;;;;;;5046522;28;20044;-62
2021/03/14 08:59:57;;;;;;;16.23;2.90;;;;;;;;;;5042868;28;20518;-62
2021/03/14 09:02:46;;;;;;;9.80;2.55;;;;;;;;;;5043087;28;20045;-63
2021/03/14 09:05:55;;;;;;;13.43;3.30;;;;;;;;;;5052515;28;20446;-63
2021/03/14 09:08:53;;;;;;;8.82;2.67;;;;;;;;;;5067925;28;20045;-63
2021/03/14 09:11:42;;;;;;;9.75;3.08;;;;;;;;;;5053816;28;20127;-63
2021/03/14 09:14:34;;;;;;;13.45;2.60;;;;;;;;;;5053579;28;20049;-63
2021/03/14 09:17:23;;;;;;;12.50;2.38;;;;;;;;;;5043275;28;20053;-63
2021/03/14 09:20:10;;;;;;;11.65;2.40;;;;;;;;;;5044577;28;20407;-62
2021/03/14 09:23:05;;;;;;;10.70;2.25;;;;;;;;;;5045180;28;20041;-64
2021/03/14 09:25:55;;;;;;;11.35;1.95;;;;;;;;;;5044025;28;20033;-63
2021/03/14 09:28:46;;;;;;;15.45;2.53;;;;;;;;;;5045479;28;20499;-63
2021/03/14 09:31:33;;;;;;;8.90;2.10;;;;;;;;;;5043247;28;20416;-62
2021/03/14 09:34:30;;;;;;;8.50;2.08;;;;;;;;;;5044060;28;20479;-63
2021/03/14 09:37:26;;;;;;;10.30;2.13;;;;;;;;;;5048599;28;20112;-63
2021/03/14 09:40:14;;;;;;;11.07;2.88;;;;;;;;;;5045113;28;20442;-64
2021/03/14 09:43:09;;;;;;;8.75;2.15;;;;;;;;;;5044799;28;20530;-63
2021/03/14 09:45:59;;;;;;;9.85;1.77;;;;;;;;;;5047587;28;20144;-62
2021/03/14 09:48:45;;;;;;;10.25;1.80;;;;;;;;;;5043633;28;20037;-63
2021/03/14 09:51:30;;;;;;;6.70;1.90;;;;;;;;;;5046327;28;20041;-63
2021/03/14 09:54:16;;;;;;;13.20;2.25;;;;;;;;;;5043653;28;20041;-64
2021/03/14 09:57:02;;;;;;;11.40;2.17;;;;;;;;;;5044212;28;20041;-63
2021/03/14 09:59:58;;;;;;;13.88;2.63;;;;;;;;;;5043450;28;20049;-63
2021/03/14 10:03:04;;;;;;;12.52;2.13;;;;;;;;;;5044812;28;20120;-64
2021/03/14 10:06:15;;;;;;;9.90;2.10;;;;;;;;;;5033102;28;20045;-63
2021/03/14 10:09:23;;;;;;;11.60;2.58;;;;;;;;;;5050485;28;20053;-63
2021/03/14 10:12:14;;;;;;;8.20;1.80;;;;;;;;;;5044347;28;20410;-63
2021/03/14 10:15:04;;;;;;;9.38;2.40;;;;;;;;;;5049219;28;20128;-63
2021/03/14 10:17:49;;;;;;;9.63;1.92;;;;;;;;;;5066492;28;20396;-63
2021/03/14 10:20:35;;;;;;;5.15;1.30;;;;;;;;;;5052402;28;20498;-64
2021/03/14 10:23:26;;;;;;;4.95;1.10;;;;;;;;;;5045029;28;20057;-65
2021/03/14 10:26:20;;;;;;;7.93;1.42;;;;;;;;;;5051279;28;20052;-63
2021/03/14 10:29:14;;;;;;;8.63;1.63;;;;;;;;;;5051774;28;20049;-63
2021/03/14 10:32:19;;;;;;;5.85;1.17;;;;;;;;;;5051234;28;20068;-63
2021/03/14 10:35:06;;;;;;;7.50;1.27;;;;;;;;;;5052018;28;20068;-64
2021/03/14 10:37:55;;;;;;;6.43;0.95;;;;;;;;;;5061990;28;20044;-64
2021/03/14 10:40:44;;;;;;;5.63;1.45;;;;;;;;;;5051890;28;20103;-63
2021/03/14 10:43:33;;;;;;;6.20;1.38;;;;;;;;;;5052257;28;20045;-63
2021/03/14 10:46:56;;;;;;;4.65;1.42;;;;;;;;;;5048345;28;20044;-63
2021/03/14 10:49:50;;;;;;;4.60;1.23;;;;;;;;;;5022471;28;20053;-63
2021/03/14 10:52:38;;;;;;;7.03;1.65;;;;;;;;;;5050800;28;20041;-63
2021/03/14 10:55:30;;;;;;;5.68;1.45;;;;;;;;;;5051474;28;20403;-64
2021/03/14 10:58:16;;;;;;;4.75;1.35;;;;;;;;;;5044207;28;20046;-63
2021/03/14 11:01:10;;;;;;;5.43;1.08;;;;;;;;;;5031797;28;20141;-64
2021/03/14 11:04:01;;;;;;;5.20;1.05;;;;;;;;;;5043324;28;20057;-64
2021/03/14 11:06:47;;;;;;;6.18;0.98;;;;;;;;;;5051581;28;20049;-64
2021/03/14 11:09:40;;;;;;;2.33;0.73;;;;;;;;;;5051469;28;20053;-63
2021/03/14 11:12:35;;;;;;;5.57;1.30;;;;;;;;;;5065500;28;20511;-63
2021/03/14 11:15:30;;;;;;;5.85;1.83;;;;;;;;;;5052258;28;20045;-63
2021/03/14 11:18:34;;;;;;;3.03;0.90;;;;;;;;;;5051415;28;20053;-64
2021/03/14 11:21:25;;;;;;;7.05;1.77;;;;;;;;;;5052141;28;20495;-64
2021/03/14 11:24:12;;;;;;;5.68;1.58;;;;;;;;;;5051082;28;20056;-64
2021/03/14 11:27:01;;;;;;;5.80;1.45;;;;;;;;;;5050058;28;20049;-64
2021/03/14 11:29:47;;;;;;;4.90;0.98;;;;;;;;;;5051021;28;20052;-64
2021/03/14 11:32:39;;;;;;;4.97;0.90;;;;;;;;;;5051366;28;20049;-64
2021/03/14 11:35:39;;;;;;;9.38;1.58;;;;;;;;;;5050199;28;20045;-63
2021/03/14 11:38:53;;;;;;;3.80;0.98;;;;;;;;;;5045378;28;20049;-63
2021/03/14 11:41:53;;;;;;;3.90;0.90;;;;;;;;;;5052167;28;20499;-63
2021/03/14 11:45:10;;;;;;;4.60;0.90;;;;;;;;;;5034904;28;20056;-63
2021/03/14 11:47:56;;;;;;;5.00;1.20;;;;;;;;;;5032013;28;20041;-64
2021/03/14 11:51:00;;;;;;;11.80;1.42;;;;;;;;;;5031985;28;20042;-63
2021/03/14 11:53:45;;;;;;;5.95;1.15;;;;;;;;;;5031112;28;20042;-63
2021/03/14 11:56:31;;;;;;;4.32;1.33;;;;;;;;;;5038810;28;20046;-63
2021/03/14 11:59:20;;;;;;;6.35;1.27;;;;;;;;;;5050740;28;20080;-63
2021/03/14 12:02:12;;;;;;;9.13;1.25;;;;;;;;;;5049719;28;20049;-63
2021/03/14 12:05:12;;;;;;;3.97;1.00;;;;;;;;;;5049242;28;20124;-63
2021/03/14 12:07:58;;;;;;;9.95;1.55;;;;;;;;;;5050057;28;20073;-63
2021/03/14 12:10:43;;;;;;;6.88;2.03;;;;;;;;;;5050576;28;20037;-63
2021/03/14 12:13:30;;;;;;;3.65;0.80;;;;;;;;;;5050967;28;20049;-63
2021/03/14 12:16:17;;;;;;;7.07;1.38;;;;;;;;;;5050450;28;20041;-63
2021/03/14 12:19:02;;;;;;;7.43;2.05;;;;;;;;;;5031808;28;20045;-63
2021/03/14 12:21:47;;;;;;;6.00;1.35;;;;;;;;;;5031733;28;20057;-63
2021/03/14 12:24:33;;;;;;;6.90;1.13;;;;;;;;;;5044009;28;20049;-63
2021/03/14 12:27:18;;;;;;;4.68;1.40;;;;;;;;;;5046095;28;20044;-64
2021/03/14 12:30:05;;;;;;;8.68;1.98;;;;;;;;;;5040936;28;20049;-63
2021/03/14 12:32:50;;;;;;;7.47;1.70;;;;;;;;;;5041214;28;20037;-63
2021/03/14 12:35:42;;;;;;;11.20;1.30;;;;;;;;;;5044139;28;20045;-64
2021/03/14 12:38:33;;;;;;;5.93;1.30;;;;;;;;;;5054561;28;20148;-63
2021/03/14 12:41:19;;;;;;;7.53;2.00;;;;;;;;;;5054458;28;20053;-63
2021/03/14 12:44:05;;;;;;;6.32;1.30;;;;;;;;;;5054356;28;20131;-63
2021/03/14 12:46:52;;;;;;;5.55;1.10;;;;;;;;;;5052085;28;20049;-63
2021/03/14 12:49:37;;;;;;;6.70;1.30;;;;;;;;;;5053200;28;20037;-63
2021/03/14 12:52:23;;;;;;;6.45;1.55;;;;;;;;;;5054160;28;20487;-63
2021/03/14 12:55:09;;;;;;;5.75;1.38;;;;;;;;;;5053891;28;20045;-63
2021/03/14 12:57:58;;;;;;;7.50;1.08;;;;;;;;;;5052851;28;20411;-63
2021/03/14 13:00:53;;;;;;;3.33;1.20;;;;;;;;;;5049455;28;20049;-63
2021/03/14 13:03:38;;;;;;;2.35;1.10;;;;;;;;;;5047162;28;20484;-63
2021/03/14 13:06:23;;;;;;;7.68;1.30;;;;;;;;;;5045348;28;20045;-63
2021/03/14 13:09:08;;;;;;;5.72;1.27;;;;;;;;;;5046916;28;20143;-63
2021/03/14 13:11:55;;;;;;;7.60;2.13;;;;;;;;;;5047915;28;20049;-64
2021/03/14 13:14:40;;;;;;;5.97;1.17;;;;;;;;;;5057873;28;20406;-63
2021/03/14 13:17:25;;;;;;;4.57;1.20;;;;;;;;;;5045223;28;20112;-63
2021/03/14 13:20:12;;;;;;;8.93;1.63;;;;;;;;;;5052735;28;20059;-63
2021/03/14 13:22:57;;;;;;;7.53;1.70;;;;;;;;;;5054567;28;20037;-63
2021/03/14 13:25:43;;;;;;;12.02;1.60;;;;;;;;;;5054319;28;20045;-63
2021/03/14 13:28:29;;;;;;;7.25;1.40;;;;;;;;;;5053908;28;20160;-63
2021/03/14 13:31:18;;;;;;;8.80;1.77;;;;;;;;;;5057494;28;20041;-63
2021/03/14 13:34:04;;;;;;;9.40;1.98;;;;;;;;;;5059260;28;20139;-64
2021/03/14 13:36:49;;;;;;;5.63;1.55;;;;;;;;;;5044437;28;20053;-64
2021/03/14 13:39:35;;;;;;;14.10;1.50;;;;;;;;;;5056859;28;20049;-62
2021/03/14 13:42:20;;;;;;;11.40;1.48;;;;;;;;;;5059056;28;20044;-64
2021/03/14 13:45:06;;;;;;;9.63;2.28;;;;;;;;;;5057678;28;20092;-63
2021/03/14 13:47:51;;;;;;;12.23;1.77;;;;;;;;;;5053589;28;20041;-64
2021/03/14 13:50:36;;;;;;;10.10;1.40;;;;;;;;;;5060335;28;20049;-64
2021/03/14 13:53:21;;;;;;;7.80;1.05;;;;;;;;;;5059275;28;20053;-63
2021/03/14 13:56:07;;;;;;;6.30;1.10;;;;;;;;;;5053656;28;20419;-63
2021/03/14 13:58:52;;;;;;;4.35;1.15;;;;;;;;;;5053712;28;20055;-64
2021/03/14 14:01:37;;;;;;;6.47;1.30;;;;;;;;;;5052423;28;20056;-63
2021/03/14 14:04:23;;;;;;;6.28;1.63;;;;;;;;;;5053103;28;20057;-64
2021/03/14 14:07:09;;;;;;;8.80;1.70;;;;;;;;;;5053528;28;20045;-64
2021/03/14 14:09:54;;;;;;;6.40;1.58;;;;;;;;;;5053104;28;20052;-64
2021/03/14 14:12:40;;;;;;;4.90;1.30;;;;;;;;;;5052091;28;20053;-64
2021/03/14 14:15:26;;;;;;;8.63;1.70;;;;;;;;;;5051504;28;20065;-64
2021/03/14 14:18:11;;;;;;;11.38;2.03;;;;;;;;;;5053382;28;20045;-64
2021/03/14 14:20:57;;;;;;;10.63;1.63;;;;;;;;;;5053172;28;20056;-63
2021/03/14 14:23:43;;;;;;;6.68;1.23;;;;;;;;;;5053407;28;20045;-63
2021/03/14 14:26:29;;;;;;;6.40;1.48;;;;;;;;;;5051014;28;20053;-63
2021/03/14 14:29:15;;;;;;;8.00;1.92;;;;;;;;;;5052054;28;20049;-64
2021/03/14 14:32:00;;;;;;;9.75;1.80;;;;;;;;;;5053127;28;20079;-63
2021/03/14 14:34:45;;;;;;;7.68;1.05;;;;;;;;;;5053036;28;20430;-63
2021/03/14 14:37:30;;;;;;;9.00;1.75;;;;;;;;;;5066917;22;20456;-63
2021/03/14 14:40:16;;;;;;;11.68;1.38;;;;;;;;;;5053941;28;20335;-64
2021/03/14 14:43:02;;;;;;;8.98;1.42;;;;;;;;;;5054893;28;20120;-64
2021/03/14 14:45:47;;;;;;;7.10;1.40;;;;;;;;;;5052818;28;20411;-64
2021/03/14 14:48:32;;;;;;;9.40;2.45;;;;;;;;;;5053541;28;20494;-64
2021/03/14 14:51:18;;;;;;;8.88;1.63;;;;;;;;;;5052004;28;20045;-64
2021/03/14 14:54:04;;;;;;;7.88;1.40;;;;;;;;;;5052746;28;20049;-64
2021/03/14 14:56:49;;;;;;;8.02;1.40;;;;;;;;;;5051353;28;20049;-64
2021/03/14 14:59:34;;;;;;;13.02;3.10;;;;;;;;;;5051641;28;20049;-64
2021/03/14 15:02:20;;;;;;;8.85;2.10;;;;;;;;;;5052544;28;20427;-64
2021/03/14 15:05:05;;;;;;;12.48;2.28;;;;;;;;;;5052366;28;20044;-64
2021/03/14 15:07:50;;;;;;;13.80;2.60;;;;;;;;;;5051685;28;20453;-64
2021/03/14 15:10:36;;;;;;;10.07;2.58;;;;;;;;;;5052201;28;20048;-64
2021/03/14 15:13:21;;;;;;;8.77;1.85;;;;;;;;;;5052489;28;20071;-64
2021/03/14 15:16:07;;;;;;;13.30;2.05;;;;;;;;;;5052080;28;20045;-64
2021/03/14 15:18:52;;;;;;;11.05;1.77;;;;;;;;;;5051375;28;20061;-64
2021/03/14 15:21:37;;;;;;;9.43;2.85;;;;;;;;;;5052128;28;20040;-64
2021/03/14 15:24:22;;;;;;;10.45;1.98;;;;;;;;;;5051420;28;20494;-64
2021/03/14 15:27:09;;;;;;;16.00;2.92;;;;;;;;;;5035139;28;20079;-64
2021/03/14 15:29:54;;;;;;;7.90;1.63;;;;;;;;;;5051997;28;20124;-64
2021/03/14 15:32:39;;;;;;;11.60;2.33;;;;;;;;;;5052093;28;20116;-66
2021/03/14 15:35:24;;;;;;;10.23;2.33;;;;;;;;;;5051666;28;20076;-66
2021/03/14 15:38:10;;;;;;;13.85;1.98;;;;;;;;;;5050856;28;20102;-66
2021/03/14 15:40:55;;;;;;;10.82;1.83;;;;;;;;;;5051790;28;20135;-66
2021/03/14 15:43:41;;;;;;;12.57;2.40;;;;;;;;;;5051576;28;20049;-65
2021/03/14 15:46:26;;;;;;;9.68;2.50;;;;;;;;;;5051068;28;20049;-65
2021/03/14 15:49:12;;;;;;;14.20;3.53;;;;;;;;;;5045820;28;20552;-65
2021/03/14 15:51:57;;;;;;;12.00;2.22;;;;;;;;;;5031848;28;20045;-66
2021/03/14 15:54:42;;;;;;;9.90;2.03;;;;;;;;;;5031762;28;20049;-64
2021/03/14 15:57:28;;;;;;;11.70;2.40;;;;;;;;;;5038826;28;20052;-65
2021/03/14 16:00:13;;;;;;;14.82;2.45;;;;;;;;;;5044850;28;20124;-65
2021/03/14 16:02:59;;;;;;;8.65;2.08;;;;;;;;;;5030370;28;20037;-65
2021/03/14 16:05:44;;;;;;;11.85;2.17;;;;;;;;;;5048959;28;20419;-65
2021/03/14 16:08:30;;;;;;;11.48;2.08;;;;;;;;;;5051309;28;20527;-65
2021/03/14 16:11:18;;;;;;;10.27;1.70;;;;;;;;;;5051225;28;20045;-65
2021/03/14 16:14:03;;;;;;;14.32;2.65;;;;;;;;;;5055101;28;20049;-65
2021/03/14 16:16:48;;;;;;;18.67;3.80;;;;;;;;;;5040644;28;20040;-64
2021/03/14 16:19:33;;;;;;;11.02;2.03;;;;;;;;;;5055527;28;20052;-64
2021/03/14 16:22:19;;;;;;;17.27;2.92;;;;;;;;;;5049446;28;20049;-65
2021/03/14 16:25:05;;;;;;;9.95;1.83;;;;;;;;;;5046405;28;20108;-65
2021/03/14 16:27:50;;;;;;;14.57;3.22;;;;;;;;;;5046093;28;20041;-65
2021/03/14 16:30:37;;;;;;;12.45;2.47;;;;;;;;;;5045995;28;20045;-65
2021/03/14 16:33:22;;;;;;;13.02;2.10;;;;;;;;;;5045537;28;20418;-65
2021/03/14 16:36:07;;;;;;;15.60;2.08;;;;;;;;;;5045407;28;20095;-65